Time;durP1;ratioP1;P1;durP2;ratioP2;P2;SDS_P1;SDS_P2;PMS_P1;PMS_P2;Temp;Humidity;BMP_temperature;BMP_pressure;BME280_temperature;BME280_humidity;BME280_pressure;Samples;Min_cycle;Max_cycle;Signal;HPM_P1;HPM_P2
2022/12/13 00:01:32;;;;;;;47.50;28.67;;;;;;;17.17;100.00;99158.22;5089773;28;20233;-63
2022/12/13 00:04:02;;;;;;;42.30;27.27;;;;;;;17.20;100.00;99163.16;5091904;28;20063;-64
2022/12/13 00:06:29;;;;;;;51.55;46.50;;;;;;;17.20;100.00;99157.53;5090764;28;20083;-64
2022/12/13 00:08:57;;;;;;;35.28;25.02;;;;;;;17.25;100.00;99143.13;5091660;28;20056;-66
2022/12/13 00:11:25;;;;;;;44.42;27.15;;;;;;;17.34;100.00;99163.56;5091182;28;20050;-65
2022/12/13 00:13:53;;;;;;;36.45;26.88;;;;;;;17.37;99.88;99156.38;5090077;28;20130;-65
2022/12/13 00:16:22;;;;;;;41.10;27.02;;;;;;;17.43;99.83;99155.75;5092193;28;20127;-65
2022/12/13 00:18:52;;;;;;;34.63;26.63;;;;;;;17.48;99.77;99168.78;5089020;28;20094;-66
2022/12/13 00:21:21;;;;;;;40.30;26.75;;;;;;;17.51;99.66;99156.78;5079779;28;20510;-65
2022/12/13 00:23:48;;;;;;;48.20;26.45;;;;;;;17.50;99.43;99166.41;5089399;28;20061;-65
2022/12/13 00:26:19;;;;;;;43.60;26.35;;;;;;;17.41;99.43;99141.19;5090344;28;20048;-64
2022/12/13 00:28:50;;;;;;;32.70;27.10;;;;;;;17.45;99.39;99158.22;5085456;28;20050;-65
2022/12/13 00:31:18;;;;;;;37.10;27.35;;;;;;;17.41;99.56;99149.66;5087199;28;20040;-64
2022/12/13 00:34:05;;;;;;;37.90;27.23;;;;;;;17.32;99.35;99143.34;5089515;28;20060;-63
2022/12/13 00:36:32;;;;;;;44.47;28.10;;;;;;;17.35;99.42;99145.44;5090145;28;20048;-63
2022/12/13 00:39:02;;;;;;;34.60;27.00;;;;;;;17.39;99.56;99156.81;5090566;28;20048;-63
2022/12/13 00:41:32;;;;;;;38.50;26.33;;;;;;;17.33;98.99;99161.09;5091539;28;20070;-63
2022/12/13 00:44:00;;;;;;;29.35;26.00;;;;;;;17.27;99.34;99155.72;5091349;28;20057;-63
2022/12/13 00:46:27;;;;;;;29.13;26.00;;;;;;;17.29;99.53;99164.63;5090914;28;20059;-64
2022/12/13 00:48:57;;;;;;;31.33;25.50;;;;;;;17.27;99.05;99147.25;5090211;28;20048;-63
2022/12/13 00:51:26;;;;;;;28.52;25.25;;;;;;;17.23;99.36;99145.50;5091298;28;20047;-63
2022/12/13 00:53:52;;;;;;;31.42;27.92;;;;;;;17.08;99.27;99135.00;5090835;28;20075;-63
2022/12/13 00:56:22;;;;;;;26.90;23.80;;;;;;;17.13;99.42;99138.38;5091570;28;20402;-63
2022/12/13 00:58:49;;;;;;;28.33;24.42;;;;;;;17.12;99.50;99141.56;5090939;28;20048;-63
2022/12/13 01:01:23;;;;;;;30.13;24.70;;;;;;;17.12;99.76;99133.09;5091255;28;20497;-63
2022/12/13 01:03:52;;;;;;;30.70;24.92;;;;;;;17.09;99.38;99128.16;5088457;28;20044;-62
2022/12/13 01:06:22;;;;;;;30.58;24.63;;;;;;;17.02;99.39;99123.13;5089205;28;20048;-64
2022/12/13 01:08:49;;;;;;;30.50;24.88;;;;;;;16.97;99.56;99120.59;5092951;28;20059;-63
2022/12/13 01:11:17;;;;;;;26.98;24.10;;;;;;;16.99;99.38;99106.94;5096631;28;20483;-64
2022/12/13 01:13:44;;;;;;;28.15;23.73;;;;;;;16.95;99.32;99123.75;5096364;28;20059;-63
2022/12/13 01:16:13;;;;;;;26.85;23.75;;;;;;;16.91;99.23;99111.53;5100816;28;20044;-63
2022/12/13 01:18:40;;;;;;;26.42;23.92;;;;;;;16.88;99.69;99122.72;5096536;28;20048;-62
2022/12/13 01:21:11;;;;;;;26.27;23.67;;;;;;;16.88;99.44;99114.25;5053158;28;20041;-63
2022/12/13 01:23:38;;;;;;;27.52;24.52;;;;;;;16.88;99.59;99114.25;5078875;28;20060;-62
2022/12/13 01:26:10;;;;;;;29.77;23.17;;;;;;;16.89;99.84;99128.03;5075430;28;20456;-62
2022/12/13 01:28:37;;;;;;;28.40;23.63;;;;;;;16.89;99.65;99138.44;5075291;28;20056;-63
2022/12/13 01:31:06;;;;;;;26.92;23.50;;;;;;;16.89;99.45;99125.19;5074798;28;20083;-63
2022/12/13 01:33:34;;;;;;;27.35;23.48;;;;;;;16.87;99.73;99133.19;5075834;28;20149;-62
2022/12/13 01:36:03;;;;;;;32.53;24.23;;;;;;;16.88;99.58;99139.63;5075171;28;20052;-63
2022/12/13 01:38:30;;;;;;;31.00;23.30;;;;;;;16.86;99.82;99142.81;5074190;28;20546;-63
2022/12/13 01:41:04;;;;;;;26.05;23.40;;;;;;;16.91;99.70;99147.38;5073535;28;20119;-63
2022/12/13 01:43:43;;;;;;;27.83;22.90;;;;;;;16.87;99.79;99138.81;5071667;28;20054;-62
2022/12/13 01:46:11;;;;;;;26.63;22.92;;;;;;;16.86;99.79;99119.47;5074836;28;20084;-62
2022/12/13 01:48:43;;;;;;;25.85;23.02;;;;;;;16.81;99.55;99112.88;5075490;28;20205;-63
2022/12/13 01:51:14;;;;;;;25.83;22.58;;;;;;;16.75;99.64;99103.03;5072934;28;20403;-63
2022/12/13 01:53:44;;;;;;;25.90;23.17;;;;;;;16.79;99.57;99126.50;5074578;28;20052;-62
2022/12/13 01:56:20;;;;;;;34.80;24.02;;;;;;;16.71;99.61;99118.97;5069538;28;20063;-62
2022/12/13 01:58:48;;;;;;;30.30;24.77;;;;;;;16.74;99.68;99114.63;5040840;28;20053;-62
2022/12/13 02:01:16;;;;;;;26.58;23.30;;;;;;;16.75;99.96;99113.47;5056531;28;20077;-63
2022/12/13 02:03:44;;;;;;;27.02;23.23;;;;;;;16.78;100.00;99133.31;5071986;28;20139;-63
2022/12/13 02:06:16;;;;;;;26.65;23.60;;;;;;;16.78;99.64;99118.41;5073077;28;20059;-62
2022/12/13 02:08:45;;;;;;;34.78;25.20;;;;;;;16.81;99.85;99135.41;5073476;28;20064;-63
2022/12/13 02:11:14;;;;;;;25.85;23.45;;;;;;;16.75;99.61;99125.59;5073458;28;20044;-63
2022/12/13 02:13:41;;;;;;;26.88;24.15;;;;;;;16.77;100.00;99134.50;5074004;28;20056;-63
2022/12/13 02:16:24;;;;;;;26.23;23.40;;;;;;;16.79;99.94;99128.53;5074668;28;20094;-63
2022/12/13 02:19:05;;;;;;;27.38;23.52;;;;;;;16.73;99.48;99127.91;5073425;28;20053;-64
2022/12/13 02:21:34;;;;;;;25.77;23.15;;;;;;;16.80;100.00;99136.59;5072928;28;20491;-62
2022/12/13 02:24:23;;;;;;;26.38;23.63;;;;;;;16.83;100.00;99142.72;5072274;28;20110;-62
2022/12/13 02:26:54;;;;;;;26.23;23.52;;;;;;;16.85;99.96;99148.81;5071985;28;20045;-63
2022/12/13 02:29:42;;;;;;;24.27;22.20;;;;;;;16.78;99.90;99129.69;5053689;28;20052;-63
2022/12/13 02:32:25;;;;;;;26.88;23.85;;;;;;;16.87;100.00;99121.09;5071019;28;20047;-63
2022/12/13 02:35:11;;;;;;;45.90;42.42;;;;;;;16.86;100.00;99130.72;5074669;28;20449;-62
2022/12/13 02:37:59;;;;;;;30.85;28.02;;;;;;;16.76;99.90;99115.94;5055833;28;20060;-62
2022/12/13 02:40:36;;;;;;;34.13;25.13;;;;;;;16.67;100.00;99118.06;5070584;28;20075;-62
2022/12/13 02:43:08;;;;;;;24.40;22.15;;;;;;;16.68;100.00;99116.88;5072512;28;20062;-62
2022/12/13 02:45:47;;;;;;;26.95;24.42;;;;;;;16.65;100.00;99119.56;5073560;28;20059;-61
2022/12/13 02:48:24;;;;;;;29.83;25.40;;;;;;;16.64;100.00;99117.94;5073824;28;20052;-62
2022/12/13 02:50:52;;;;;;;29.90;25.25;;;;;;;16.62;100.00;99107.03;5039686;28;20057;-63
2022/12/13 02:53:21;;;;;;;29.98;24.30;;;;;;;16.72;100.00;99120.63;5072923;28;20399;-63
2022/12/13 02:55:48;;;;;;;29.20;25.50;;;;;;;16.76;100.00;99115.94;5071451;28;20056;-62
2022/12/13 02:58:21;;;;;;;30.65;24.77;;;;;;;16.75;100.00;99122.78;5073442;28;20049;-61
2022/12/13 03:00:53;;;;;;;27.77;24.65;;;;;;;16.76;100.00;99127.22;5071953;28;20055;-62
2022/12/13 03:03:41;;;;;;;27.95;24.98;;;;;;;16.76;100.00;99124.41;5072951;28;20044;-63
2022/12/13 03:06:34;;;;;;;28.35;25.35;;;;;;;16.76;100.00;99130.03;5068692;28;20056;-62
2022/12/13 03:09:23;;;;;;;26.83;23.95;;;;;;;16.69;100.00;99114.91;5072517;28;20048;-62
2022/12/13 03:15:19;;;;;;;27.65;24.92;;;;;;;16.67;100.00;99086.22;5068395;28;20289;-63
2022/12/13 03:18:14;;;;;;;26.55;23.88;;;;;;;16.68;100.00;99088.69;5040137;28;20491;-64
2022/12/13 03:21:02;;;;;;;26.13;23.60;;;;;;;16.75;100.00;99103.03;5075234;28;20461;-63
2022/12/13 03:23:29;;;;;;;27.60;24.80;;;;;;;16.84;100.00;99100.06;5092160;28;20043;-62
2022/12/13 03:26:03;;;;;;;27.80;24.13;;;;;;;16.86;100.00;99091.25;5091506;28;20048;-62
2022/12/13 03:28:30;;;;;;;29.90;24.52;;;;;;;16.85;100.00;99093.22;5092838;28;20482;-63
2022/12/13 03:30:56;;;;;;;26.42;23.88;;;;;;;16.90;100.00;99095.00;5092999;28;20458;-62
2022/12/13 03:33:23;;;;;;;30.75;24.63;;;;;;;16.87;100.00;99098.53;5093061;28;20044;-61
2022/12/13 03:35:50;;;;;;;49.78;45.78;;;;;;;16.94;100.00;99093.09;5092391;28;20052;-61
2022/12/13 03:38:18;;;;;;;32.38;24.33;;;;;;;16.98;100.00;99091.19;5093316;28;20059;-63
2022/12/13 03:41:01;;;;;;;34.28;24.92;;;;;;;16.96;100.00;99091.56;5091317;28;20174;-63
2022/12/13 03:43:28;;;;;;;;;;;;;;;16.78;100.00;99087.38;5092733;28;20074;-63
2022/12/13 03:45:55;;;;;;;29.38;24.40;;;;;;;16.99;100.00;99090.84;5092430;28;19920;-62
2022/12/13 03:48:23;;;;;;;30.30;24.02;;;;;;;17.02;100.00;99083.66;5091762;28;20414;-62
2022/12/13 03:50:51;;;;;;;34.22;25.10;;;;;;;17.08;100.00;99076.56;5088728;28;20044;-62
2022/12/13 03:53:19;;;;;;;38.75;26.48;;;;;;;17.10;100.00;99077.03;5089361;28;20048;-62
2022/12/13 03:55:59;;;;;;;27.42;24.80;;;;;;;17.13;100.00;99067.88;5087600;28;20047;-61
2022/12/13 03:58:27;;;;;;;39.33;24.83;;;;;;;17.14;100.00;99063.84;5089675;28;20059;-62
2022/12/13 04:01:06;;;;;;;32.47;24.55;;;;;;;17.18;100.00;99067.59;5085291;28;20079;-62
2022/12/13 04:03:33;;;;;;;32.47;24.95;;;;;;;17.16;100.00;99064.31;5091482;28;20044;-62
2022/12/13 04:06:00;;;;;;;39.35;26.48;;;;;;;17.17;100.00;99074.44;5091859;28;20063;-62
2022/12/13 04:08:26;;;;;;;40.85;26.83;;;;;;;17.15;100.00;99059.84;5091458;28;20067;-62
2022/12/13 04:10:53;;;;;;;33.70;24.02;;;;;;;17.15;100.00;99053.38;5090756;28;20044;-61
2022/12/13 04:13:32;;;;;;;38.40;26.38;;;;;;;17.16;100.00;99063.47;5092417;28;20043;-61
2022/12/13 04:16:00;;;;;;;35.37;25.07;;;;;;;17.13;100.00;99048.13;5091066;28;20056;-63
2022/12/13 04:18:27;;;;;;;27.70;24.77;;;;;;;17.12;100.00;99062.56;5090221;28;20498;-63
2022/12/13 04:20:54;;;;;;;35.47;26.05;;;;;;;17.17;100.00;99060.31;5069763;28;20055;-63
2022/12/13 04:23:21;;;;;;;34.80;26.38;;;;;;;17.19;100.00;99066.41;5071033;28;20418;-62
2022/12/13 04:25:48;;;;;;;42.72;26.35;;;;;;;17.21;100.00;99072.50;5071037;28;20056;-62
2022/12/13 04:28:15;;;;;;;32.03;24.90;;;;;;;17.27;100.00;99070.25;5070496;28;20044;-62
2022/12/13 04:30:49;;;;;;;43.95;26.33;;;;;;;17.29;100.00;99068.69;5054777;28;20157;-62
2022/12/13 04:33:20;;;;;;;52.40;28.52;;;;;;;17.28;100.00;99058.59;5071592;28;20055;-62
2022/12/13 04:35:47;;;;;;;45.03;26.35;;;;;;;17.31;100.00;99065.53;5072021;28;20049;-62
2022/12/13 04:38:15;;;;;;;41.53;26.60;;;;;;;17.34;100.00;99052.72;5070980;28;20048;-62
2022/12/13 04:40:42;;;;;;;55.67;27.10;;;;;;;17.35;100.00;99046.69;5071060;28;20147;-62
2022/12/13 04:43:09;;;;;;;38.55;25.55;;;;;;;17.36;100.00;99041.84;5058594;28;20044;-62
2022/12/13 04:45:35;;;;;;;47.03;25.75;;;;;;;17.34;100.00;99045.06;5072056;28;20414;-63
2022/12/13 04:48:03;;;;;;;38.70;27.52;;;;;;;17.35;100.00;99051.50;5070927;28;20124;-62
2022/12/13 04:50:29;;;;;;;41.72;28.05;;;;;;;17.32;100.00;99032.47;5069500;28;20060;-62
2022/12/13 04:52:56;;;;;;;42.70;25.75;;;;;;;17.37;100.00;99037.88;5071881;28;20044;-63
2022/12/13 04:55:23;;;;;;;38.03;25.77;;;;;;;17.36;100.00;99036.22;5053680;28;20068;-62
2022/12/13 04:57:50;;;;;;;42.13;27.23;;;;;;;17.37;100.00;99038.69;5046008;28;20049;-62
2022/12/13 05:00:17;;;;;;;35.30;25.10;;;;;;;17.35;100.00;99028.94;5058485;28;20063;-62
2022/12/13 05:02:43;;;;;;;47.75;27.00;;;;;;;17.34;100.00;99042.22;5071010;28;20052;-63
2022/12/13 05:05:10;;;;;;;39.30;25.55;;;;;;;17.35;100.00;99035.41;5070832;28;20098;-61
2022/12/13 05:07:38;;;;;;;60.05;27.55;;;;;;;17.33;100.00;99031.28;5072334;28;20048;-62
2022/12/13 05:10:10;;;;;;;28.38;24.45;;;;;;;17.29;100.00;99026.38;5071841;28;20056;-62
2022/12/13 05:12:36;;;;;;;48.72;26.88;;;;;;;17.31;100.00;99042.13;5070334;28;20049;-62
2022/12/13 05:15:04;;;;;;;46.80;27.95;;;;;;;17.33;100.00;99023.63;5069596;28;20083;-62
2022/12/13 05:17:31;;;;;;;44.22;27.15;;;;;;;17.32;100.00;99024.03;5072944;28;20052;-61
2022/12/13 05:19:57;;;;;;;45.38;27.85;;;;;;;17.30;99.99;99018.75;5072297;28;20056;-62
2022/12/13 05:22:25;;;;;;;42.97;26.95;;;;;;;17.27;99.79;99011.00;5068335;28;20045;-62
2022/12/13 05:24:52;;;;;;;36.30;26.17;;;;;;;17.27;99.98;99017.47;5070203;28;20054;-62
2022/12/13 05:27:19;;;;;;;43.90;26.92;;;;;;;17.22;99.60;99011.25;5070305;28;20056;-62
2022/12/13 05:29:55;;;;;;;51.97;47.13;;;;;;;17.19;99.73;98998.69;5069914;28;20048;-62
2022/12/13 05:32:37;;;;;;;53.45;27.45;;;;;;;17.19;99.71;98992.25;5070840;28;20049;-63
2022/12/13 05:35:13;;;;;;;42.28;27.63;;;;;;;17.19;100.00;98993.06;5055964;28;20052;-62
2022/12/13 05:37:53;;;;;;;47.67;29.65;;;;;;;17.16;99.88;98993.81;5071482;28;20102;-61
2022/12/13 05:40:25;;;;;;;38.10;25.58;;;;;;;17.21;99.73;98989.88;5070154;28;20136;-62
2022/12/13 05:42:52;;;;;;;49.30;27.42;;;;;;;17.24;99.88;99004.09;5070312;28;20048;-62
2022/12/13 05:45:29;;;;;;;33.63;24.80;;;;;;;17.21;99.93;98979.41;5071035;28;20095;-62
2022/12/13 05:47:56;;;;;;;40.40;26.13;;;;;;;17.25;99.78;98997.25;5070584;28;20425;-63
2022/12/13 05:50:23;;;;;;;53.42;27.33;;;;;;;17.22;99.96;98988.69;5071480;28;20044;-62
2022/12/13 05:52:50;;;;;;;46.80;26.15;;;;;;;17.14;99.92;98987.69;5070958;28;20040;-63
2022/12/13 05:55:17;;;;;;;39.10;26.30;;;;;;;17.17;99.81;98986.16;5069939;28;20411;-62
2022/12/13 05:57:44;;;;;;;42.50;26.75;;;;;;;17.21;99.99;98989.88;5074116;28;20044;-62
2022/12/13 06:00:17;;;;;;;37.40;25.45;;;;;;;17.23;99.96;98987.50;5072497;28;20055;-63
2022/12/13 06:02:57;;;;;;;45.25;28.02;;;;;;;17.17;99.82;98974.88;5075239;28;20407;-62
2022/12/13 06:05:29;;;;;;;43.00;27.48;;;;;;;17.16;99.57;98970.41;5074984;28;20052;-63
2022/12/13 06:07:56;;;;;;;46.85;26.75;;;;;;;17.14;99.83;98972.78;5074848;28;20122;-62
2022/12/13 06:10:25;;;;;;;38.20;27.02;;;;;;;17.14;99.54;98979.25;5046938;28;20057;-63
2022/12/13 06:13:01;;;;;;;45.05;26.02;;;;;;;17.10;99.62;98978.34;5071108;28;20045;-62
2022/12/13 06:15:49;;;;;;;40.10;25.35;;;;;;;17.04;99.70;98968.50;5070220;28;20044;-62
2022/12/13 06:18:16;;;;;;;42.58;26.15;;;;;;;17.13;99.62;98963.50;5073743;28;20051;-62
2022/12/13 06:20:42;;;;;;;46.90;26.70;;;;;;;17.09;99.50;98965.38;5058337;28;20459;-63
2022/12/13 06:23:09;;;;;;;43.08;26.40;;;;;;;17.11;99.16;98962.22;5072076;28;20059;-64
2022/12/13 06:25:36;;;;;;;41.90;27.10;;;;;;;17.05;99.51;98964.47;5071783;28;20399;-63
2022/12/13 06:28:03;;;;;;;40.30;25.10;;;;;;;17.06;99.53;98960.50;5072823;28;20047;-63
2022/12/13 06:30:30;;;;;;;39.40;26.33;;;;;;;17.02;99.22;98957.56;5071207;28;20044;-63
2022/12/13 06:32:57;;;;;;;40.53;26.02;;;;;;;17.02;99.54;98965.19;5055041;28;20550;-63
2022/12/13 06:35:25;;;;;;;46.13;26.40;;;;;;;17.00;99.30;98961.94;5073438;28;20554;-63
2022/12/13 06:37:55;;;;;;;39.63;25.73;;;;;;;16.95;99.20;98950.91;5072837;28;20044;-63
2022/12/13 06:40:32;;;;;;;48.47;24.63;;;;;;;16.87;99.14;98935.81;5073062;28;20148;-63
2022/12/13 06:42:59;;;;;;;39.25;25.45;;;;;;;16.88;99.25;98953.56;5051948;28;20048;-62
2022/12/13 06:45:26;;;;;;;37.50;24.17;;;;;;;16.66;99.03;98926.75;5072271;28;20060;-63
2022/12/13 06:47:54;;;;;;;38.80;25.70;;;;;;;16.76;98.78;98955.28;5071335;28;20047;-62
2022/12/13 06:50:21;;;;;;;43.13;25.90;;;;;;;16.74;98.92;98954.81;5069311;28;20044;-62
2022/12/13 06:52:48;;;;;;;40.78;25.77;;;;;;;16.74;98.79;98951.97;5070814;28;20049;-62
2022/12/13 06:55:15;;;;;;;33.33;24.20;;;;;;;16.72;98.80;98934.59;5073530;28;20059;-62
2022/12/13 06:57:50;;;;;;;36.80;25.10;;;;;;;16.71;98.76;98937.75;5073455;28;20052;-62
2022/12/13 07:00:17;;;;;;;36.50;27.67;;;;;;;16.68;98.51;98942.09;5073210;28;20052;-62
2022/12/13 07:02:55;;;;;;;34.80;23.27;;;;;;;16.58;98.21;98939.81;5071493;28;20054;-63
2022/12/13 07:05:23;;;;;;;29.73;26.08;;;;;;;16.47;98.39;98938.69;5073318;28;20051;-63
2022/12/13 07:07:50;;;;;;;40.28;30.80;;;;;;;16.38;98.68;98935.25;5072253;28;20514;-63
2022/12/13 07:10:17;;;;;;;36.25;24.80;;;;;;;16.35;98.43;98931.13;5073461;28;20094;-64
2022/12/13 07:12:48;;;;;;;32.65;26.67;;;;;;;16.18;98.80;98906.91;5073563;28;20045;-64
2022/12/13 07:15:15;;;;;;;26.75;24.08;;;;;;;16.22;98.68;98909.84;5071433;28;20051;-61
2022/12/13 07:17:42;;;;;;;34.63;25.10;;;;;;;16.19;98.49;98916.19;5072273;28;20048;-62
2022/12/13 07:20:10;;;;;;;32.38;24.63;;;;;;;16.14;98.76;98913.59;5060737;28;20590;-62
2022/12/13 07:22:37;;;;;;;31.58;24.92;;;;;;;16.04;98.37;98898.88;5055340;28;20040;-62
2022/12/13 07:25:13;;;;;;;33.33;25.73;;;;;;;16.01;98.62;98912.84;5069958;28;20062;-61
2022/12/13 07:27:59;;;;;;;32.28;26.02;;;;;;;16.01;98.99;98901.59;5071649;28;20052;-63
2022/12/13 07:30:29;;;;;;;39.25;24.75;;;;;;;16.00;99.01;98903.59;5070828;28;20380;-61
2022/12/13 07:32:57;;;;;;;35.95;32.92;;;;;;;15.98;99.45;98905.94;5071092;28;20166;-62
2022/12/13 07:35:23;;;;;;;54.35;49.80;;;;;;;15.97;99.43;98906.28;5051236;28;20084;-61
2022/12/13 07:37:50;;;;;;;45.80;26.75;;;;;;;15.96;99.27;98913.91;5071530;28;20419;-62
2022/12/13 07:40:17;;;;;;;41.88;33.53;;;;;;;16.00;99.53;98916.81;5070550;28;20048;-62
2022/12/13 07:42:52;;;;;;;37.78;24.98;;;;;;;15.88;99.16;98901.59;5051672;28;20044;-62
2022/12/13 07:45:19;;;;;;;34.75;24.38;;;;;;;15.94;99.13;98921.06;5052688;28;20060;-63
2022/12/13 07:47:46;;;;;;;26.58;23.83;;;;;;;15.93;98.97;98919.41;5069671;28;20464;-62
2022/12/13 07:50:14;;;;;;;43.88;39.65;;;;;;;15.87;98.51;98916.88;5051806;28;20494;-62
2022/12/13 07:52:51;;;;;;;31.75;23.58;;;;;;;15.87;98.80;98916.88;5068749;28;20525;-62
2022/12/13 07:55:20;;;;;;;26.80;24.50;;;;;;;15.86;98.82;98920.03;5070389;28;20064;-62
2022/12/13 07:58:03;;;;;;;28.83;25.98;;;;;;;15.76;98.27;98898.00;5066855;28;20129;-62
2022/12/13 08:00:31;;;;;;;26.83;24.05;;;;;;;15.71;97.83;98904.69;5067918;28;20048;-62
2022/12/13 08:03:00;;;;;;;25.80;23.52;;;;;;;15.64;97.84;98896.00;5068048;28;20044;-62
2022/12/13 08:05:27;;;;;;;27.73;24.17;;;;;;;15.60;98.09;98895.91;5066264;28;20135;-62
2022/12/13 08:08:07;;;;;;;25.20;23.00;;;;;;;15.54;98.11;98886.06;5067553;28;20055;-61
2022/12/13 08:10:34;;;;;;;27.27;24.98;;;;;;;15.47;97.89;98897.09;5069114;28;20102;-62
2022/12/13 08:13:02;;;;;;;36.15;33.30;;;;;;;15.47;98.13;98899.09;5047084;28;20398;-61
2022/12/13 08:15:29;;;;;;;24.05;22.10;;;;;;;15.45;97.85;98904.25;5056285;28;20052;-61
2022/12/13 08:17:56;;;;;;;44.45;41.55;;;;;;;15.40;97.83;98897.69;5061185;28;20053;-61
2022/12/13 08:20:24;;;;;;;30.10;27.80;;;;;;;15.39;98.22;98893.25;5064721;28;20084;-61
2022/12/13 08:22:55;;;;;;;25.17;22.92;;;;;;;15.33;97.93;98886.22;5064823;28;20061;-61
2022/12/13 08:25:28;;;;;;;27.98;25.77;;;;;;;15.35;97.89;98899.91;5059318;28;20083;-61
2022/12/13 08:27:55;;;;;;;34.85;32.08;;;;;;;15.33;97.97;98894.66;5065571;28;20058;-61
2022/12/13 08:30:28;;;;;;;38.55;36.03;;;;;;;15.29;98.53;98902.16;5070788;28;20135;-61
2022/12/13 08:32:54;;;;;;;39.90;37.42;;;;;;;15.32;98.28;98907.09;5069855;28;20055;-62
2022/12/13 08:35:21;;;;;;;23.65;22.13;;;;;;;15.33;98.46;98907.91;5068281;28;20057;-61
2022/12/13 08:37:48;;;;;;;33.42;30.40;;;;;;;15.33;98.16;98891.84;5067780;28;20338;-61
2022/12/13 08:40:15;;;;;;;23.20;21.67;;;;;;;15.34;97.96;98865.34;5071184;28;20048;-60
2022/12/13 08:42:41;;;;;;;34.55;32.65;;;;;;;15.32;97.82;98850.00;5070049;28;20045;-61
2022/12/13 08:45:09;;;;;;;26.52;23.90;;;;;;;15.35;97.58;98864.19;5070975;28;20055;-60
2022/12/13 08:47:36;;;;;;;39.78;36.60;;;;;;;15.41;97.58;98876.00;5071336;28;20159;-61
2022/12/13 08:50:07;;;;;;;35.83;33.50;;;;;;;15.43;97.59;98856.78;5071147;28;20102;-62
2022/12/13 08:52:35;;;;;;;40.13;37.83;;;;;;;15.50;97.87;98859.00;5050251;28;20052;-60
2022/12/13 08:55:11;;;;;;;27.33;25.40;;;;;;;15.39;97.37;98842.63;5064801;28;20049;-61
2022/12/13 08:57:40;;;;;;;36.45;34.42;;;;;;;15.59;97.62;98856.88;5071248;28;20052;-61
2022/12/13 09:00:11;;;;;;;27.48;25.50;;;;;;;15.62;97.35;98851.34;5052403;28;20048;-61
2022/12/13 09:02:37;;;;;;;24.35;22.85;;;;;;;15.65;97.29;98866.69;5060703;28;20055;-61
2022/12/13 09:05:06;;;;;;;26.85;25.15;;;;;;;15.70;97.06;98871.31;5076135;28;20050;-62
2022/12/13 09:07:34;;;;;;;25.48;23.35;;;;;;;15.72;96.88;98881.00;5081191;28;20053;-61
2022/12/13 09:10:03;;;;;;;36.58;34.58;;;;;;;15.72;96.46;98864.13;5073518;28;20049;-62
2022/12/13 09:12:32;;;;;;;23.17;21.70;;;;;;;15.61;96.25;98868.59;5074311;28;20044;-61
2022/12/13 09:15:07;;;;;;;24.08;22.67;;;;;;;15.74;96.42;98897.56;5067136;28;20083;-61
2022/12/13 09:17:48;;;;;;;23.20;21.90;;;;;;;15.73;96.29;98898.72;5068173;28;20052;-62
2022/12/13 09:20:19;;;;;;;24.45;22.83;;;;;;;15.77;96.51;98899.66;5082695;28;20056;-61
2022/12/13 09:22:55;;;;;;;23.80;22.10;;;;;;;15.77;96.73;98903.28;5085270;28;20503;-61
2022/12/13 09:25:30;;;;;;;25.98;23.38;;;;;;;15.78;96.49;98904.09;5087924;28;20097;-61
2022/12/13 09:28:05;;;;;;;24.55;22.52;;;;;;;15.84;96.40;98899.88;5089001;28;20047;-62
2022/12/13 09:30:33;;;;;;;23.17;21.60;;;;;;;15.85;96.70;98919.22;5096195;28;20048;-64
2022/12/13 09:32:59;;;;;;;25.00;23.08;;;;;;;15.86;96.73;98908.75;5082636;28;20538;-61
2022/12/13 09:35:46;;;;;;;24.63;22.83;;;;;;;15.85;96.69;98904.31;5091920;28;20048;-61
2022/12/13 09:38:13;;;;;;;26.00;23.75;;;;;;;15.92;96.43;98923.41;5091490;28;20048;-62
2022/12/13 09:40:44;;;;;;;27.83;24.23;;;;;;;15.87;96.16;98891.53;5094600;28;20068;-61
2022/12/13 09:43:24;;;;;;;25.00;23.25;;;;;;;15.85;95.68;98898.69;5089875;28;20516;-62
2022/12/13 09:46:04;;;;;;;25.55;23.40;;;;;;;15.89;96.08;98899.59;5094822;28;20290;-62
2022/12/13 09:48:50;;;;;;;27.42;25.02;;;;;;;15.83;96.26;98893.44;5100671;28;20409;-61
2022/12/13 09:51:17;;;;;;;26.83;24.52;;;;;;;15.78;96.05;98890.03;5096449;28;20052;-61
2022/12/13 09:54:04;;;;;;;53.70;50.65;;;;;;;15.73;95.99;98895.91;5094110;28;20108;-61
2022/12/13 09:56:32;;;;;;;24.67;22.50;;;;;;;15.73;96.32;98887.47;5097285;28;20052;-61
2022/12/13 09:58:59;;;;;;;26.08;24.23;;;;;;;15.70;95.91;98877.75;5093738;28;20048;-60
2022/12/13 10:01:26;;;;;;;43.20;40.50;;;;;;;15.60;96.29;98862.13;5087219;28;20059;-61
2022/12/13 10:03:58;;;;;;;26.00;24.13;;;;;;;15.62;96.17;98875.84;5096153;28;20055;-61
2022/12/13 10:06:30;;;;;;;26.05;23.85;;;;;;;15.60;96.77;98883.84;5084686;28;20483;-61
2022/12/13 10:08:59;;;;;;;28.30;26.08;;;;;;;15.57;96.49;98904.22;5090628;28;20062;-61
2022/12/13 10:11:27;;;;;;;25.65;24.02;;;;;;;15.48;96.24;98889.47;5088862;28;20147;-61
2022/12/13 10:14:16;;;;;;;30.27;27.92;;;;;;;15.38;96.67;98871.91;5081450;28;20047;-62
2022/12/13 10:16:48;;;;;;;26.00;24.05;;;;;;;15.34;96.62;98865.34;5090730;28;20415;-62
2022/12/13 10:19:17;;;;;;;31.30;29.25;;;;;;;15.27;97.50;98898.03;5089805;28;20396;-61
2022/12/13 10:21:58;;;;;;;26.05;24.20;;;;;;;15.20;97.39;98892.19;5090957;28;20150;-62
2022/12/13 10:24:47;;;;;;;23.17;21.77;;;;;;;15.12;98.22;98885.53;5090558;28;20509;-61
2022/12/13 10:27:16;;;;;;;24.98;23.08;;;;;;;15.14;98.09;98894.41;5102725;28;20063;-61
2022/12/13 10:30:05;;;;;;;26.10;23.63;;;;;;;15.08;98.57;98896.66;5090557;28;20047;-62
2022/12/13 10:32:42;;;;;;;26.23;24.33;;;;;;;15.13;98.31;98904.84;5091416;28;20059;-61
2022/12/13 10:35:23;;;;;;;26.23;24.00;;;;;;;15.16;98.60;98898.53;5086601;28;20517;-61
2022/12/13 10:37:50;;;;;;;24.25;22.50;;;;;;;15.20;98.95;98897.81;5090647;28;20052;-61
2022/12/13 10:40:30;;;;;;;28.38;26.05;;;;;;;15.22;98.65;98899.13;5107125;28;20052;-61
2022/12/13 10:43:25;;;;;;;27.02;24.80;;;;;;;15.15;98.67;98901.69;5083147;28;20102;-60
2022/12/13 10:45:56;;;;;;;28.58;25.77;;;;;;;15.24;98.86;98916.44;5080200;28;20040;-60
2022/12/13 10:48:39;;;;;;;28.38;25.30;;;;;;;15.22;98.76;98901.94;5082712;28;20449;-61
2022/12/13 10:51:07;;;;;;;29.80;27.27;;;;;;;15.30;99.23;98903.78;5084917;28;20054;-61
2022/12/13 10:53:57;;;;;;;51.03;47.65;;;;;;;15.25;98.96;98895.59;5089480;28;20145;-61
2022/12/13 10:56:44;;;;;;;27.73;25.73;;;;;;;15.23;98.73;98895.13;5095222;28;20358;-61
2022/12/13 10:59:24;;;;;;;46.10;43.17;;;;;;;15.18;99.28;98884.13;5090003;28;20432;-61
2022/12/13 11:01:51;;;;;;;29.67;27.02;;;;;;;15.20;99.48;98886.56;5081209;28;20052;-62
2022/12/13 11:04:20;;;;;;;28.25;25.90;;;;;;;15.13;99.51;98887.97;5084595;28;20044;-61
2022/12/13 11:06:54;;;;;;;29.73;27.50;;;;;;;15.06;99.59;98870.88;5088732;28;20127;-60
2022/12/13 11:09:27;;;;;;;29.02;26.52;;;;;;;15.06;99.90;98870.88;5080897;28;20055;-61
2022/12/13 11:12:13;;;;;;;28.08;25.80;;;;;;;15.06;100.00;98856.00;5095113;28;20048;-61
2022/12/13 11:14:53;;;;;;;55.50;52.38;;;;;;;14.99;99.88;98853.78;5097960;28;20044;-61
2022/12/13 11:17:23;;;;;;;27.92;26.00;;;;;;;15.02;100.00;98852.25;5088929;28;20048;-61
2022/12/13 11:20:18;;;;;;;30.17;27.55;;;;;;;14.91;100.00;98849.09;5088596;28;20056;-61
2022/12/13 11:22:45;;;;;;;29.80;27.10;;;;;;;14.99;100.00;98847.34;5084832;28;20403;-61
2022/12/13 11:25:39;;;;;;;32.05;29.40;;;;;;;14.94;100.00;98834.34;5088237;28;20055;-61
2022/12/13 11:28:28;;;;;;;56.22;52.42;;;;;;;14.94;100.00;98854.03;5094335;28;20527;-61
2022/12/13 11:31:50;;;;;;;33.83;31.33;;;;;;;14.91;100.00;98843.47;5094846;28;20363;-61
2022/12/13 11:34:17;;;;;;;30.70;28.25;;;;;;;15.01;100.00;98834.56;5075419;28;20494;-60
2022/12/13 11:37:14;;;;;;;31.55;29.08;;;;;;;15.04;100.00;98828.25;5089160;28;20424;-61
2022/12/13 11:39:49;;;;;;;29.05;26.73;;;;;;;15.01;100.00;98811.25;5078244;28;20414;-61